createdAt,value
2018-04-11T00:00:59.847Z,77.17
2018-04-11T00:01:59.866Z,77.36
2018-04-11T00:02:59.887Z,77.84
2018-04-11T00:03:59.914Z,78.03
2018-04-11T00:04:59.934Z,78.03
2018-04-11T00:05:59.959Z,78.42
2018-04-11T00:06:59.980Z,78.13
2018-04-11T00:08:00.005Z,78.51
2018-04-11T00:09:00.018Z,78.61
2018-04-11T00:10:00.049Z,78.99
2018-04-11T00:11:00.066Z,79.18
2018-04-11T00:12:00.092Z,77.84
2018-04-11T00:13:00.116Z,78.32
2018-04-11T00:14:00.131Z,78.51
2018-04-11T00:15:00.160Z,78.22
2018-04-11T00:16:00.175Z,78.42
2018-04-11T00:17:00.200Z,78.61
2018-04-11T00:18:00.226Z,78.61
2018-04-11T00:19:00.243Z,78.80
2018-04-11T00:20:00.273Z,79.08
2018-04-11T00:21:00.292Z,79.28
2018-04-11T00:22:00.313Z,79.75
2018-04-11T00:23:00.334Z,80.00
2018-04-11T00:24:00.365Z,80.29
2018-04-11T00:25:00.385Z,80.00
2018-04-11T00:26:00.400Z,79.91
2018-04-11T00:27:00.426Z,80.14
2018-04-11T00:28:00.445Z,80.24
2018-04-11T00:29:00.465Z,80.62
2018-04-11T00:30:00.494Z,81.00
2018-04-11T00:31:00.506Z,81.00
2018-04-11T00:32:00.536Z,81.20
2018-04-11T00:33:00.555Z,81.48
2018-04-11T00:34:00.574Z,81.48
2018-04-11T00:35:00.600Z,82.06
2018-04-11T00:36:00.613Z,81.44
2018-04-11T00:37:00.639Z,81.67
2018-04-11T00:38:00.666Z,81.44
2018-04-11T00:39:00.684Z,81.86
2018-04-11T00:40:00.704Z,82.34
2018-04-11T00:41:00.722Z,82.20
2018-04-11T00:42:00.747Z,82.68
2018-04-11T00:43:00.773Z,82.49
2018-04-11T00:44:00.793Z,83.26
2018-04-11T00:45:00.821Z,82.87
2018-04-11T00:46:00.833Z,83.26
2018-04-11T00:47:00.856Z,83.54
2018-04-11T00:48:00.880Z,83.45
2018-04-11T00:49:00.901Z,83.73
2018-04-11T00:50:00.925Z,83.64
2018-04-11T00:51:00.947Z,84.02
2018-04-11T00:52:00.967Z,83.93
2018-04-11T00:53:00.991Z,83.54
2018-04-11T00:54:01.010Z,84.41
2018-04-11T00:55:01.030Z,84.12
2018-04-11T00:56:01.055Z,84.02
2018-04-11T00:57:01.081Z,84.88
2018-04-11T00:58:01.099Z,83.93
2018-04-11T00:59:01.114Z,84.79
2018-04-11T01:00:01.143Z,84.50
2018-04-11T01:01:01.158Z,85.17
2018-04-11T01:02:01.188Z,85.03
2018-04-11T01:03:01.205Z,85.65
2018-04-11T01:04:01.231Z,85.65
2018-04-11T01:05:01.244Z,85.32
2018-04-11T01:06:01.277Z,85.61
2018-04-11T01:07:01.295Z,85.22
2018-04-11T01:08:01.313Z,85.41
2018-04-11T01:09:01.338Z,85.80
2018-04-11T01:10:01.352Z,85.80
2018-04-11T01:11:01.378Z,85.80
2018-04-11T01:12:01.398Z,86.18
2018-04-11T01:13:01.416Z,86.47
2018-04-11T01:14:01.446Z,86.37
2018-04-11T01:15:01.462Z,86.37
2018-04-11T01:16:01.487Z,85.89
2018-04-11T01:17:01.511Z,86.18
2018-04-11T01:18:01.524Z,86.28
2018-04-11T01:19:01.555Z,86.28
2018-04-11T01:20:01.574Z,85.89
2018-04-11T01:21:01.599Z,86.76
2018-04-11T01:22:01.613Z,86.28
2018-04-11T01:23:01.633Z,86.18
2018-04-11T01:24:01.667Z,86.14
2018-04-11T01:25:01.677Z,86.37
2018-04-11T01:26:01.711Z,86.90
2018-04-11T01:27:01.721Z,86.71
2018-04-11T01:28:01.749Z,86.90
2018-04-11T01:29:01.771Z,86.57
2018-04-11T01:30:01.785Z,86.90
2018-04-11T01:31:01.811Z,87.00
2018-04-11T01:32:01.854Z,87.38
2018-04-11T01:33:01.852Z,87.29
2018-04-11T01:34:01.879Z,87.57
2018-04-11T01:35:01.900Z,87.57
2018-04-11T01:36:01.924Z,87.48
2018-04-11T01:37:01.935Z,87.48
2018-04-11T01:38:01.965Z,87.09
2018-04-11T01:39:01.980Z,87.00
2018-04-11T01:40:02.006Z,87.38
2018-04-11T01:41:02.028Z,87.38
2018-04-11T01:42:02.043Z,87.57
2018-04-11T01:43:02.068Z,87.09
2018-04-11T01:44:02.087Z,87.66
2018-04-11T01:45:02.105Z,87.76
2018-04-11T01:46:02.131Z,87.48
2018-04-11T01:47:02.174Z,87.66
2018-04-11T01:48:02.170Z,87.95
2018-04-11T01:49:02.200Z,88.24
2018-04-11T01:50:02.214Z,88.34
2018-04-11T01:51:02.247Z,87.95
2018-04-11T01:52:02.256Z,88.34
2018-04-11T01:53:02.280Z,88.34
2018-04-11T01:54:02.303Z,88.34
2018-04-11T01:55:02.320Z,87.66
2018-04-11T01:56:02.353Z,88.48
2018-04-11T01:57:02.368Z,88.20
2018-04-11T01:58:02.388Z,88.20
2018-04-11T01:59:02.413Z,88.58
2018-04-11T02:00:02.428Z,88.77
2018-04-11T02:01:02.457Z,88.96
2018-04-11T02:02:02.477Z,88.77
2018-04-11T02:03:02.492Z,88.77
2018-04-11T02:04:02.517Z,88.96
2018-04-11T02:05:02.535Z,88.96
2018-04-11T02:06:02.564Z,89.06
2018-04-11T02:07:02.582Z,88.96
2018-04-11T02:08:02.601Z,88.68
2018-04-11T02:09:02.627Z,88.96
2018-04-11T02:10:02.648Z,89.44
2018-04-11T02:11:02.665Z,89.25
2018-04-11T02:12:02.688Z,89.25
2018-04-11T02:13:02.707Z,89.44
2018-04-11T02:14:02.731Z,89.15
2018-04-11T02:15:02.751Z,89.15
2018-04-11T02:16:02.781Z,89.44
2018-04-11T02:17:02.794Z,88.96
2018-04-11T02:18:02.865Z,89.63
2018-04-11T02:19:02.838Z,89.34
2018-04-11T02:20:02.852Z,89.44
2018-04-11T02:21:02.886Z,89.53
2018-04-11T02:22:02.900Z,89.63
2018-04-11T02:23:02.926Z,89.49
2018-04-11T02:24:02.935Z,89.68
2018-04-11T02:25:02.960Z,90.06
2018-04-11T02:26:02.984Z,90.11
2018-04-11T02:27:02.999Z,89.97
2018-04-11T02:28:03.028Z,89.97
2018-04-11T02:29:03.047Z,90.16
2018-04-11T02:30:03.067Z,89.87
2018-04-11T02:31:03.087Z,90.45
2018-04-11T02:32:03.161Z,90.06
2018-04-11T02:33:03.129Z,89.87
2018-04-11T02:34:03.154Z,90.45
2018-04-11T02:35:03.174Z,90.45
2018-04-11T02:36:03.197Z,90.25
2018-04-11T02:37:03.212Z,90.25
2018-04-11T02:38:03.235Z,90.45
2018-04-11T02:39:03.253Z,90.25
2018-04-11T02:40:03.283Z,91.11
2018-04-11T02:41:03.305Z,90.54
2018-04-11T02:42:03.318Z,90.64
2018-04-11T02:43:03.344Z,91.11
2018-04-11T02:44:03.361Z,91.02
2018-04-11T02:45:03.386Z,91.30
2018-04-11T02:46:03.881Z,91.02
2018-04-11T02:47:03.673Z,90.83
2018-04-11T02:48:03.504Z,91.40
2018-04-11T02:49:03.463Z,91.11
2018-04-11T02:50:03.484Z,90.83
2018-04-11T02:51:03.505Z,91.26
2018-04-11T02:52:03.523Z,91.36
2018-04-11T02:53:03.551Z,91.93
2018-04-11T02:54:03.567Z,90.97
2018-04-11T02:55:03.593Z,90.69
2018-04-11T02:56:03.605Z,91.07
2018-04-11T02:57:03.636Z,90.88
2018-04-11T02:58:03.647Z,90.97
2018-04-11T02:59:03.668Z,90.88
2018-04-11T03:00:03.698Z,91.07
2018-04-11T03:01:03.718Z,91.07
2018-04-11T03:02:03.740Z,90.88
2018-04-11T03:03:03.758Z,90.97
2018-04-11T03:04:03.777Z,90.69
2018-04-11T03:05:03.801Z,91.07
2018-04-11T03:06:03.819Z,90.69
2018-04-11T03:07:03.837Z,91.07
2018-04-11T03:08:03.858Z,91.16
2018-04-11T03:09:03.880Z,90.59
2018-04-11T03:10:03.907Z,91.26
2018-04-11T03:11:03.917Z,91.02
2018-04-11T03:12:03.948Z,91.41
2018-04-11T03:13:03.959Z,91.60
2018-04-11T03:14:03.988Z,91.02
2018-04-11T03:15:04.016Z,91.31
2018-04-11T03:16:04.020Z,91.41
2018-04-11T03:17:04.049Z,91.41
2018-04-11T03:18:04.062Z,92.07
2018-04-11T03:19:04.087Z,91.78
2018-04-11T03:20:04.105Z,91.60
2018-04-11T03:21:04.134Z,91.60
2018-04-11T03:22:04.147Z,91.69
2018-04-11T03:23:04.166Z,91.50
2018-04-11T03:24:04.184Z,91.98
2018-04-11T03:25:04.213Z,91.41
2018-04-11T03:26:04.230Z,92.07
2018-04-11T03:27:04.254Z,92.17
2018-04-11T03:28:04.265Z,92.07
2018-04-11T03:29:04.288Z,91.88
2018-04-11T03:30:04.313Z,91.21
2018-04-11T03:31:04.326Z,91.88
2018-04-11T03:32:04.360Z,91.78
2018-04-11T03:33:04.372Z,92.07
2018-04-11T03:34:04.389Z,92.46
2018-04-11T03:35:04.411Z,92.17
2018-04-11T03:36:04.433Z,92.17
2018-04-11T03:37:04.459Z,92.22
2018-04-11T03:38:04.475Z,92.26
2018-04-11T03:39:04.494Z,92.32
2018-04-11T03:40:04.517Z,92.12
2018-04-11T03:41:04.530Z,92.03
2018-04-11T03:42:04.616Z,92.41
2018-04-11T03:43:04.576Z,92.69
2018-04-11T03:44:04.593Z,92.60
2018-04-11T03:45:04.611Z,92.98
2018-04-11T03:46:04.641Z,92.79
2018-04-11T03:47:04.655Z,92.69
2018-04-11T03:48:04.678Z,93.08
2018-04-11T03:49:04.699Z,92.69
2018-04-11T03:50:57.397Z,92.88
2018-04-11T03:51:04.741Z,93.08
2018-04-11T03:52:35.725Z,92.88
2018-04-11T03:53:04.776Z,92.98
2018-04-11T03:54:04.801Z,93.17
2018-04-11T03:55:04.815Z,93.27
2018-04-11T03:56:04.838Z,93.08
2018-04-11T03:58:04.044Z,93.08
2018-04-11T03:58:04.881Z,93.08
2018-04-11T03:59:04.898Z,92.98
2018-04-11T04:00:04.921Z,93.08
2018-04-11T04:01:04.946Z,93.17
2018-04-11T04:02:04.955Z,93.17
2018-04-11T04:03:04.975Z,93.55
2018-04-11T04:04:04.999Z,93.55
2018-04-11T04:05:05.019Z,93.27
2018-04-11T04:06:05.037Z,93.36
2018-04-11T04:07:05.059Z,93.74
2018-04-11T04:08:05.077Z,93.55
2018-04-11T04:09:05.097Z,93.74
2018-04-11T04:10:05.121Z,93.65
2018-04-11T04:11:05.136Z,93.55
2018-04-11T04:12:05.159Z,93.84
2018-04-11T04:13:05.183Z,93.27
2018-04-11T04:14:05.200Z,93.55
2018-04-11T04:15:05.223Z,93.46
2018-04-11T04:16:05.240Z,93.65
2018-04-11T04:17:05.262Z,93.55
2018-04-11T04:18:05.279Z,93.74
2018-04-11T04:19:05.306Z,93.74
2018-04-11T04:20:05.324Z,93.65
2018-04-11T04:21:05.344Z,93.74
2018-04-11T04:22:05.357Z,93.84
2018-04-11T04:23:05.384Z,93.65
2018-04-11T04:24:05.396Z,94.12
2018-04-11T04:25:05.417Z,93.60
2018-04-11T04:26:05.445Z,93.36
2018-04-11T04:27:05.458Z,93.84
2018-04-11T04:28:05.484Z,93.55
2018-04-11T04:29:05.497Z,93.51
2018-04-11T04:30:05.519Z,93.65
2018-04-11T04:31:05.540Z,93.74
2018-04-11T04:32:05.559Z,93.36
2018-04-11T04:33:05.579Z,93.74
2018-04-11T04:34:05.601Z,93.93
2018-04-11T04:35:05.623Z,93.46
2018-04-11T04:36:05.644Z,93.55
2018-04-11T04:37:05.661Z,93.46
2018-04-11T04:38:05.677Z,93.32
2018-04-11T04:39:05.696Z,93.51
2018-04-11T04:40:05.724Z,93.84
2018-04-11T04:41:05.793Z,92.98
2018-04-11T04:42:05.761Z,93.70
2018-04-11T04:43:05.818Z,93.84
2018-04-11T04:44:05.812Z,93.74
2018-04-11T04:45:05.823Z,93.79
2018-04-11T04:46:05.842Z,93.70
2018-04-11T04:47:05.862Z,93.60
2018-04-11T04:48:05.875Z,93.22
2018-04-11T04:49:05.903Z,93.60
2018-04-11T04:50:05.988Z,93.22
2018-04-11T04:51:05.957Z,93.70
2018-04-11T04:52:05.985Z,93.41
2018-04-11T04:53:05.977Z,93.70
2018-04-11T04:54:06.000Z,93.60
2018-04-11T04:55:06.016Z,94.93
2018-04-11T04:56:06.040Z,94.74
2018-04-11T04:57:06.060Z,93.60
2018-04-11T04:58:06.077Z,92.65
2018-04-11T04:59:06.117Z,93.12
2018-04-11T05:00:06.185Z,93.22
2018-04-11T05:01:06.161Z,97.99
2018-04-11T05:02:06.168Z,99.08
2018-04-11T05:03:06.174Z,97.85
2018-04-11T05:04:06.202Z,93.65
2018-04-11T05:05:06.226Z,94.84
2018-04-11T05:06:06.234Z,91.60
2018-04-11T05:07:06.255Z,88.92
2018-04-11T05:08:06.273Z,89.07
2018-04-11T05:09:06.314Z,89.64
2018-04-11T05:10:06.322Z,90.59
2018-04-11T05:11:06.338Z,90.98
2018-04-11T05:12:06.361Z,91.36
2018-04-11T05:13:06.387Z,91.69
2018-04-11T05:14:06.394Z,92.36
2018-04-11T05:15:06.421Z,92.46
2018-04-11T05:16:06.432Z,92.27
2018-04-11T05:17:06.462Z,92.74
2018-04-11T05:18:06.480Z,92.17
2018-04-11T05:19:06.494Z,92.36
2018-04-11T05:20:06.518Z,92.36
2018-04-11T05:21:06.539Z,92.65
2018-04-11T05:22:06.559Z,93.03
2018-04-11T05:23:06.572Z,92.74
2018-04-11T05:24:06.595Z,92.65
2018-04-11T05:25:06.620Z,92.84
2018-04-11T05:26:06.633Z,92.55
2018-04-11T05:27:06.659Z,92.65
2018-04-11T05:28:06.671Z,92.74
2018-04-11T05:29:06.692Z,92.46
2018-04-11T05:30:06.720Z,93.03
2018-04-11T05:31:06.733Z,92.84
2018-04-11T05:32:06.756Z,93.22
2018-04-11T05:33:06.771Z,92.36
2018-04-11T05:34:06.795Z,92.74
2018-04-11T05:35:06.817Z,92.46
2018-04-11T05:36:06.834Z,92.55
2018-04-11T05:37:06.855Z,92.84
2018-04-11T05:38:06.877Z,92.46
2018-04-11T05:39:07.239Z,93.03
2018-04-11T05:40:06.916Z,92.74
2018-04-11T05:41:06.929Z,92.27
2018-04-11T05:44:10.312Z,92.27
2018-04-11T05:44:51.025Z,92.08
2018-04-11T05:46:51.065Z,91.69
2018-04-11T05:47:51.085Z,92.27
2018-04-11T05:48:51.108Z,91.13
2018-04-11T05:49:51.127Z,91.50
2018-04-11T05:50:51.148Z,91.60
2018-04-11T05:51:51.170Z,92.17
2018-04-11T05:52:51.184Z,91.69
2018-04-11T05:53:51.210Z,92.08
2018-04-11T05:54:51.227Z,91.88
2018-04-11T05:55:51.242Z,92.08
2018-04-11T05:56:51.265Z,91.60
2018-04-11T05:57:51.287Z,91.79
2018-04-11T05:58:51.310Z,91.98
2018-04-11T05:59:51.324Z,91.69
2018-04-11T06:00:51.394Z,91.79
2018-04-11T06:01:51.378Z,91.69
2018-04-11T06:02:51.381Z,91.60
2018-04-11T06:03:51.401Z,91.88
2018-04-11T06:04:51.433Z,91.88
2018-04-11T06:05:51.443Z,91.98
2018-04-11T06:06:51.469Z,91.60
2018-04-11T06:07:51.488Z,91.31
2018-04-11T06:08:51.503Z,91.13
2018-04-11T06:09:51.521Z,91.31
2018-04-11T06:10:51.548Z,91.55
2018-04-11T06:11:51.571Z,90.98
2018-04-11T06:12:51.580Z,91.17
2018-04-11T06:13:51.604Z,90.88
2018-04-11T06:14:51.620Z,90.88
2018-04-11T06:15:51.640Z,91.07
2018-04-11T06:16:51.669Z,90.50
2018-04-11T06:17:51.684Z,89.83
2018-04-11T06:18:51.707Z,89.93
2018-04-11T06:19:51.723Z,89.36
2018-04-11T06:20:51.747Z,89.17
2018-04-11T06:21:51.769Z,88.59
2018-04-11T06:22:51.837Z,88.02
2018-04-11T06:23:51.809Z,88.12
2018-04-11T06:24:51.826Z,87.83
2018-04-11T06:25:51.851Z,87.21
2018-04-11T06:26:51.861Z,86.10
2018-04-11T06:27:51.890Z,84.39
2018-04-11T06:28:51.905Z,83.67
2018-04-11T06:29:51.927Z,83.28
2018-04-11T06:30:51.950Z,82.52
2018-04-11T06:31:51.965Z,81.22
2018-04-11T06:32:51.988Z,80.27
2018-04-11T06:33:52.012Z,79.88
2018-04-11T06:34:52.025Z,79.98
2018-04-11T06:35:52.045Z,79.50
2018-04-11T06:36:52.076Z,78.49
2018-04-11T06:37:52.088Z,78.30
2018-04-11T06:38:52.117Z,78.20
2018-04-11T06:39:52.136Z,77.44
2018-04-11T06:40:52.160Z,77.06
2018-04-11T06:41:52.172Z,77.25
2018-04-11T06:42:52.203Z,76.67
2018-04-11T06:44:44.897Z,76.52
2018-04-11T06:44:52.248Z,75.76
2018-04-11T06:45:52.262Z,75.56
2018-04-11T06:46:52.284Z,75.18
2018-04-11T06:47:52.308Z,74.90
2018-04-11T06:49:51.510Z,75.09
2018-04-11T06:49:52.357Z,75.18
2018-04-11T06:52:37.134Z,75.85
2018-04-11T06:53:36.458Z,76.52
2018-04-11T06:54:36.471Z,76.14
2018-04-11T06:55:36.503Z,76.42
2018-04-11T06:56:36.520Z,75.85
2018-04-11T06:57:36.546Z,75.85
2018-04-11T06:58:36.566Z,75.37
2018-04-11T06:59:36.589Z,74.74
2018-04-11T07:00:36.616Z,73.84
2018-04-11T07:01:36.631Z,74.51
2018-04-11T07:02:36.661Z,74.70
2018-04-11T07:03:36.680Z,74.61
2018-04-11T07:04:36.707Z,74.84
2018-04-11T07:05:36.767Z,74.16
2018-04-11T07:06:36.752Z,74.26
2018-04-11T07:07:36.769Z,73.59
2018-04-11T07:08:36.800Z,72.73
2018-04-11T07:09:36.845Z,72.19
2018-04-11T07:10:36.851Z,72.09
2018-04-11T07:11:36.864Z,72.34
2018-04-11T07:12:36.891Z,72.63
2018-04-11T07:13:36.916Z,72.44
2018-04-11T07:14:36.940Z,72.09
2018-04-11T07:15:36.957Z,71.23
2018-04-11T07:16:36.984Z,71.52
2018-04-11T07:17:37.011Z,70.21
2018-04-11T07:18:37.026Z,70.03
2018-04-11T07:19:37.051Z,69.45
2018-04-11T07:20:37.082Z,68.14
2018-04-11T07:21:37.104Z,69.35
2018-04-11T07:22:37.128Z,69.89
2018-04-11T07:23:37.153Z,69.35
2018-04-11T07:24:37.168Z,67.76
2018-04-11T07:25:37.202Z,67.12
2018-04-11T07:26:37.216Z,66.55
2018-04-11T07:27:37.240Z,66.16
2018-04-11T07:28:37.268Z,64.76
2018-04-11T07:29:37.298Z,63.89
2018-04-11T07:30:37.317Z,64.56
2018-04-11T07:31:37.337Z,64.85
2018-04-11T07:32:37.370Z,64.76
2018-04-11T07:33:37.387Z,64.85
2018-04-11T07:34:37.422Z,64.09
2018-04-11T07:35:37.437Z,64.82
2018-04-11T07:36:37.468Z,65.55
2018-04-11T07:37:37.490Z,65.78
2018-04-11T07:38:37.517Z,65.11
2018-04-11T07:39:37.543Z,64.76
2018-04-11T07:40:37.566Z,64.09
2018-04-11T07:41:37.588Z,63.51
2018-04-11T07:42:37.622Z,62.77
2018-04-11T07:43:37.640Z,61.94
2018-04-11T07:44:37.664Z,62.10
2018-04-11T07:45:37.693Z,61.55
2018-04-11T07:46:37.723Z,60.69
2018-04-11T07:47:37.744Z,60.24
2018-04-11T07:48:37.774Z,60.02
2018-04-11T07:49:37.797Z,59.92
2018-04-11T07:50:37.825Z,60.69
2018-04-11T07:51:37.844Z,60.02
2018-04-11T07:52:37.879Z,60.21
2018-04-11T07:53:37.899Z,60.50
2018-04-11T07:54:37.934Z,60.88
2018-04-11T07:55:37.959Z,60.50
2018-04-11T07:56:37.977Z,60.78
2018-04-11T07:57:38.011Z,59.95
2018-04-11T07:59:38.057Z,60.60
2018-04-11T08:01:11.464Z,60.78
2018-04-11T08:01:38.112Z,60.88
2018-04-11T08:02:38.148Z,59.66
2018-04-11T08:03:38.165Z,59.38
2018-04-11T08:05:38.220Z,58.61
2018-04-11T08:06:38.249Z,58.61
2018-04-11T08:07:38.277Z,57.97
2018-04-11T08:08:38.299Z,57.87
2018-04-11T08:11:38.391Z,55.13
2018-04-11T08:12:38.419Z,55.23
2018-04-11T08:13:38.440Z,54.85
2018-04-11T08:14:38.474Z,53.33
2018-04-11T08:15:38.493Z,54.27
2018-04-11T08:16:38.528Z,54.56
2018-04-11T08:17:38.547Z,53.43
2018-04-11T08:18:38.575Z,53.33
2018-04-11T08:19:38.610Z,52.66
2018-04-11T08:20:38.631Z,53.33
2018-04-11T08:21:38.667Z,53.91
2018-04-11T08:22:38.692Z,54.00
2018-04-11T08:23:38.718Z,54.00
2018-04-11T08:24:38.749Z,53.98
2018-04-11T08:25:38.775Z,54.00
2018-04-11T08:26:38.803Z,53.23
2018-04-11T08:27:38.833Z,52.95
2018-04-11T08:28:38.860Z,52.85
2018-04-11T08:29:38.891Z,52.87
2018-04-11T08:30:38.920Z,52.75
2018-04-11T08:31:38.945Z,52.04
2018-04-11T08:32:38.977Z,51.75
2018-04-11T08:34:13.074Z,50.95
2018-04-11T08:34:39.035Z,52.56
2018-04-11T08:35:39.065Z,52.66
2018-04-11T08:36:39.086Z,52.13
2018-04-11T08:37:39.123Z,52.04
2018-04-11T08:38:39.145Z,50.49
2018-04-11T08:39:39.176Z,51.07
2018-04-11T08:40:39.208Z,51.53
2018-04-11T08:41:39.237Z,52.30
2018-04-11T08:42:39.262Z,51.56
2018-04-11T08:43:39.292Z,50.23
2018-04-11T08:44:39.328Z,48.71
2018-04-11T08:45:39.350Z,48.03
2018-04-11T08:46:39.383Z,48.59
2018-04-11T08:47:39.416Z,48.69
2018-04-11T08:48:39.436Z,48.95
2018-04-11T08:49:39.473Z,49.07
2018-04-11T08:50:39.503Z,49.27
2018-04-11T08:51:39.530Z,49.65
2018-04-11T08:52:39.557Z,48.88
2018-04-11T08:53:39.584Z,48.23
2018-04-11T08:54:39.622Z,47.85
2018-04-11T08:55:39.643Z,47.94
2018-04-11T08:56:39.686Z,48.06
2018-04-11T08:58:05.513Z,47.22
2018-04-11T08:58:39.734Z,45.98
2018-04-11T08:59:39.761Z,45.50
2018-04-11T09:00:39.799Z,45.57
2018-04-11T09:01:39.824Z,46.06
2018-04-11T09:02:39.855Z,47.55
2018-04-11T09:03:39.890Z,48.42
2018-04-11T09:04:39.911Z,48.25
2018-04-11T09:05:39.949Z,47.67
2018-04-11T09:06:39.975Z,47.48
2018-04-11T09:07:40.002Z,47.65
2018-04-11T09:08:40.040Z,47.67
2018-04-11T09:09:40.067Z,47.77
2018-04-11T09:10:40.103Z,47.38
2018-04-11T09:11:40.127Z,47.87
2018-04-11T09:12:40.157Z,47.48
2018-04-11T09:13:40.193Z,46.92
2018-04-11T09:14:40.219Z,47.38
2018-04-11T09:15:40.252Z,46.64
2018-04-11T09:16:40.281Z,46.15
2018-04-11T09:17:40.312Z,45.62
2018-04-11T09:18:40.339Z,45.50
2018-04-11T09:19:40.368Z,45.50
2018-04-11T09:20:40.405Z,45.31
2018-04-11T09:21:40.431Z,45.40
2018-04-11T09:22:40.464Z,45.40
2018-04-11T09:23:40.496Z,45.59
2018-04-11T09:24:40.519Z,45.98
2018-04-11T09:25:40.553Z,46.51
2018-04-11T09:26:40.583Z,46.54
2018-04-11T09:27:40.613Z,46.15
2018-04-11T09:28:40.649Z,46.08
2018-04-11T09:29:40.673Z,45.04
2018-04-11T09:30:40.714Z,44.75
2018-04-11T09:31:40.750Z,44.07
2018-04-11T09:32:40.773Z,43.61
2018-04-11T09:33:40.805Z,42.76
2018-04-11T09:34:40.828Z,43.73
2018-04-11T09:35:40.867Z,43.54
2018-04-11T09:36:40.892Z,42.59
2018-04-11T09:37:40.929Z,42.93
2018-04-11T09:38:40.961Z,43.80
2018-04-11T09:39:40.988Z,43.80
2018-04-11T09:40:41.016Z,43.99
2018-04-11T09:41:41.047Z,43.73
2018-04-11T09:42:41.085Z,42.30
2018-04-11T09:43:41.106Z,42.00
2018-04-11T09:44:41.140Z,42.45
2018-04-11T09:45:41.174Z,42.86
2018-04-11T09:46:41.203Z,42.57
2018-04-11T09:47:41.234Z,43.23
2018-04-11T09:48:41.269Z,43.90
2018-04-11T09:49:41.300Z,43.99
2018-04-11T09:50:41.334Z,43.71
2018-04-11T09:51:41.362Z,43.71
2018-04-11T09:52:41.391Z,44.29
2018-04-11T09:53:41.432Z,43.99
2018-04-11T09:54:41.452Z,43.73
2018-04-11T09:57:25.604Z,43.51
2018-04-11T09:58:59.012Z,44.17
2018-04-11T09:59:25.680Z,44.19
2018-04-11T10:01:25.729Z,43.71
2018-04-11T10:02:25.762Z,43.59
2018-04-11T10:03:25.791Z,43.90
2018-04-11T10:04:25.824Z,45.31
2018-04-11T10:05:25.849Z,45.14
2018-04-11T10:06:25.882Z,44.75
2018-04-11T10:07:25.916Z,44.48
2018-04-11T10:08:25.947Z,43.90
2018-04-11T10:09:25.975Z,43.80
2018-04-11T10:10:26.005Z,44.65
2018-04-11T10:11:26.044Z,44.48
2018-04-11T10:12:26.075Z,42.78
2018-04-11T10:13:26.102Z,42.68
2018-04-11T10:14:26.132Z,41.91
2018-04-11T10:15:26.169Z,42.47
2018-04-11T10:16:26.195Z,42.03
2018-04-11T10:17:26.225Z,41.08
2018-04-11T10:18:26.253Z,40.99
2018-04-11T10:19:26.286Z,41.62
2018-04-11T10:20:26.316Z,41.37
2018-04-11T10:21:26.356Z,40.31
2018-04-11T10:22:26.382Z,40.96
2018-04-11T10:23:26.412Z,41.74
2018-04-11T10:24:26.443Z,41.27
2018-04-11T10:25:26.477Z,41.14
2018-04-11T10:26:26.511Z,42.59
2018-04-11T10:27:26.538Z,42.61
2018-04-11T10:28:26.566Z,41.64
2018-04-11T10:29:26.600Z,41.35
2018-04-11T10:30:26.630Z,41.91
2018-04-11T10:31:26.664Z,42.00
2018-04-11T10:32:26.701Z,44.73
2018-04-11T10:33:26.723Z,46.34
2018-04-11T10:34:26.758Z,47.38
2018-04-11T10:35:26.791Z,48.71
2018-04-11T10:36:26.825Z,49.75
2018-04-11T10:37:26.848Z,51.07
2018-04-11T10:38:26.890Z,51.94
2018-04-11T10:39:26.909Z,52.69
2018-04-11T10:40:26.940Z,53.36
2018-04-11T10:41:26.979Z,53.55
2018-04-11T10:42:27.001Z,54.10
2018-04-11T10:43:27.040Z,55.04
2018-04-11T10:44:27.064Z,55.71
2018-04-11T10:45:27.091Z,56.84
2018-04-11T10:46:27.128Z,57.03
2018-04-11T10:47:27.148Z,57.90
2018-04-11T10:48:27.183Z,57.70
2018-04-11T10:49:27.208Z,58.09
2018-04-11T10:50:27.234Z,58.15
2018-04-11T10:51:27.267Z,58.54
2018-04-11T10:52:27.295Z,58.45
2018-04-11T10:53:27.322Z,59.31
2018-04-11T10:54:27.344Z,59.12
2018-04-11T10:55:27.387Z,59.31
2018-04-11T10:56:27.401Z,59.50
2018-04-11T10:57:27.433Z,58.83
2018-04-11T10:58:27.463Z,58.73
2018-04-11T10:59:27.514Z,58.54
2018-04-11T11:00:27.512Z,59.05
2018-04-11T11:01:27.541Z,58.09
2018-04-11T11:02:27.565Z,58.09
2018-04-11T11:03:27.588Z,58.67
2018-04-11T11:04:27.620Z,58.95
2018-04-11T11:05:27.640Z,59.22
2018-04-11T11:06:27.672Z,59.22
2018-04-11T11:07:27.696Z,59.89
2018-04-11T11:08:27.722Z,60.27
2018-04-11T11:09:27.743Z,60.56
2018-04-11T11:10:27.781Z,60.82
2018-04-11T11:11:27.800Z,60.85
2018-04-11T11:12:27.820Z,60.75
2018-04-11T11:13:27.843Z,61.81
2018-04-11T11:14:27.866Z,61.33
2018-04-11T11:15:27.900Z,61.33
2018-04-11T11:16:27.939Z,60.85
2018-04-11T11:17:27.939Z,60.75
2018-04-11T11:18:27.973Z,60.66
2018-04-11T11:19:27.990Z,60.75
2018-04-11T11:20:28.014Z,60.66
2018-04-11T11:21:28.049Z,60.66
2018-04-11T11:22:28.073Z,60.17
2018-04-11T11:23:28.120Z,60.56
2018-04-11T11:24:28.113Z,60.66
2018-04-11T11:25:28.147Z,60.30
2018-04-11T11:26:28.169Z,59.34
2018-04-11T11:27:28.192Z,59.44
2018-04-11T11:28:28.214Z,56.57
2018-04-11T11:29:28.242Z,53.03
2018-04-11T11:30:28.268Z,53.48
2018-04-11T11:31:28.301Z,55.09
2018-04-11T11:32:28.315Z,55.77
2018-04-11T11:33:28.338Z,54.44
2018-04-11T11:35:28.398Z,54.74
2018-04-11T11:36:28.418Z,53.29
2018-04-11T11:37:28.446Z,53.48
2018-04-11T11:38:28.465Z,54.42
2018-04-11T11:39:28.492Z,54.52
2018-04-11T11:40:28.515Z,55.00
2018-04-11T11:41:28.537Z,55.38
2018-04-11T11:42:28.571Z,56.12
2018-04-11T11:43:28.592Z,56.51
2018-04-11T11:44:28.614Z,57.06
2018-04-11T11:45:28.645Z,57.54
2018-04-11T11:46:28.669Z,58.60
2018-04-11T11:47:28.696Z,58.86
2018-04-11T11:48:28.719Z,59.24
2018-04-11T11:49:28.740Z,59.92
2018-04-11T11:50:28.769Z,59.72
2018-04-11T11:51:28.786Z,59.82
2018-04-11T11:52:28.819Z,59.44
2018-04-11T11:53:28.844Z,59.05
2018-04-11T11:54:28.861Z,59.50
2018-04-11T11:55:28.895Z,60.37
2018-04-11T11:56:28.908Z,59.79
2018-04-11T11:57:28.939Z,60.56
2018-04-11T11:58:28.965Z,60.56
2018-04-11T11:59:28.993Z,61.81
2018-04-11T12:00:29.007Z,61.23
2018-04-11T12:01:29.036Z,62.29
2018-04-11T12:02:29.065Z,62.19
2018-04-11T12:03:29.088Z,62.29
2018-04-11T12:04:29.114Z,61.61
2018-04-11T12:05:29.139Z,61.33
2018-04-11T12:06:29.154Z,61.65
2018-04-11T12:07:29.181Z,59.27
2018-04-11T12:08:29.208Z,58.79
2018-04-11T12:09:29.227Z,56.95
2018-04-11T12:10:29.260Z,55.31
2018-04-11T12:11:29.280Z,56.92
2018-04-11T12:12:29.303Z,57.47
2018-04-11T12:13:29.375Z,58.40
2018-04-11T12:14:29.363Z,58.60
2018-04-11T12:15:29.378Z,58.60
2018-04-11T12:16:29.399Z,59.08
2018-04-11T12:17:29.428Z,59.82
2018-04-11T12:18:29.445Z,60.21
2018-04-11T12:19:29.496Z,60.88
2018-04-11T12:20:29.494Z,61.61
2018-04-11T12:21:29.558Z,61.61
2018-04-11T12:22:29.546Z,61.71
2018-04-11T12:23:29.568Z,62.10
2018-04-11T12:24:48.900Z,62.29
2018-04-11T12:27:29.672Z,63.57
2018-04-11T12:28:29.684Z,64.34
2018-04-11T12:29:29.714Z,64.72
2018-04-11T12:30:29.745Z,64.82
2018-04-11T12:31:29.759Z,65.30
2018-04-11T12:32:29.785Z,66.16
2018-04-11T12:33:29.815Z,66.16
2018-04-11T12:34:29.830Z,66.33
2018-04-11T12:35:29.859Z,65.84
2018-04-11T12:36:29.884Z,66.36
2018-04-11T12:37:29.901Z,66.36
2018-04-11T12:38:29.932Z,65.97
2018-04-11T12:39:29.951Z,62.87
2018-04-11T12:40:29.977Z,62.29
2018-04-11T12:41:29.999Z,62.00
2018-04-11T12:42:30.026Z,63.06
2018-04-11T12:43:30.043Z,62.87
2018-04-11T12:44:30.075Z,62.96
2018-04-11T12:45:30.091Z,63.60
2018-04-11T12:46:30.123Z,63.60
2018-04-11T12:47:30.145Z,61.84
2018-04-11T12:48:30.170Z,60.91
2018-04-11T12:49:30.186Z,59.37
2018-04-11T12:50:30.217Z,58.63
2018-04-11T12:51:30.237Z,55.66
2018-04-11T12:52:30.264Z,53.44
2018-04-11T12:53:30.285Z,54.47
2018-04-11T12:54:30.316Z,53.37
2018-04-11T12:55:30.332Z,52.01
2018-04-11T12:56:30.362Z,52.93
2018-04-11T12:57:30.381Z,53.37
2018-04-11T12:58:30.449Z,51.95
2018-04-11T12:59:30.432Z,52.57
2018-04-11T13:00:30.458Z,52.86
2018-04-11T13:01:30.482Z,52.93
2018-04-11T13:02:30.588Z,54.64
2018-04-11T13:03:30.532Z,55.57
2018-04-11T13:04:30.560Z,57.57
2018-04-11T13:05:30.582Z,57.95
2018-04-11T13:06:30.638Z,58.15
2018-04-11T13:07:30.631Z,58.63